sensor_id;sensor_type;location;lat;lon;timestamp;pressure;altitude;pressure_sealevel;temperature
29423;BMP180;16399;51.686;8.684;2022-07-18T00:01:47;100780.00;;;16.80
29423;BMP180;16399;51.686;8.684;2022-07-18T00:04:50;100782.00;;;16.80
29423;BMP180;16399;51.686;8.684;2022-07-18T00:07:53;100792.00;;;16.70
29423;BMP180;16399;51.686;8.684;2022-07-18T00:10:55;100785.00;;;16.70
29423;BMP180;16399;51.686;8.684;2022-07-18T00:13:58;100793.00;;;16.60
29423;BMP180;16399;51.686;8.684;2022-07-18T00:17:00;100793.00;;;16.60
29423;BMP180;16399;51.686;8.684;2022-07-18T00:20:06;100801.00;;;16.50
29423;BMP180;16399;51.686;8.684;2022-07-18T00:23:08;100811.00;;;16.50
29423;BMP180;16399;51.686;8.684;2022-07-18T00:26:11;100814.00;;;16.50
29423;BMP180;16399;51.686;8.684;2022-07-18T00:29:13;100802.00;;;16.50
29423;BMP180;16399;51.686;8.684;2022-07-18T00:32:15;100800.00;;;16.50
29423;BMP180;16399;51.686;8.684;2022-07-18T00:35:17;100796.00;;;16.50
29423;BMP180;16399;51.686;8.684;2022-07-18T00:38:20;100787.00;;;16.40
29423;BMP180;16399;51.686;8.684;2022-07-18T00:41:23;100785.00;;;16.30
29423;BMP180;16399;51.686;8.684;2022-07-18T00:44:26;100786.00;;;16.30
29423;BMP180;16399;51.686;8.684;2022-07-18T00:47:31;100780.00;;;16.20
29423;BMP180;16399;51.686;8.684;2022-07-18T00:50:34;100781.00;;;16.10
29423;BMP180;16399;51.686;8.684;2022-07-18T00:53:36;100784.00;;;16.10
29423;BMP180;16399;51.686;8.684;2022-07-18T00:56:39;100780.00;;;16.10
29423;BMP180;16399;51.686;8.684;2022-07-18T00:59:41;100788.00;;;16.00
29423;BMP180;16399;51.686;8.684;2022-07-18T01:03:01;100773.00;;;16.00
29423;BMP180;16399;51.686;8.684;2022-07-18T01:06:04;100755.00;;;16.00
29423;BMP180;16399;51.686;8.684;2022-07-18T01:09:06;100753.00;;;16.00
29423;BMP180;16399;51.686;8.684;2022-07-18T01:12:09;100748.00;;;15.90
29423;BMP180;16399;51.686;8.684;2022-07-18T01:15:12;100764.00;;;15.90
29423;BMP180;16399;51.686;8.684;2022-07-18T01:18:14;100751.00;;;15.80
29423;BMP180;16399;51.686;8.684;2022-07-18T01:21:17;100751.00;;;15.80
29423;BMP180;16399;51.686;8.684;2022-07-18T01:24:19;100737.00;;;15.80
29423;BMP180;16399;51.686;8.684;2022-07-18T01:27:22;100734.00;;;15.80
29423;BMP180;16399;51.686;8.684;2022-07-18T01:30:25;100726.00;;;15.80
29423;BMP180;16399;51.686;8.684;2022-07-18T01:33:30;100725.00;;;15.80
29423;BMP180;16399;51.686;8.684;2022-07-18T01:36:32;100725.00;;;15.80
29423;BMP180;16399;51.686;8.684;2022-07-18T01:39:34;100718.00;;;15.80
29423;BMP180;16399;51.686;8.684;2022-07-18T01:42:36;100728.00;;;15.80
29423;BMP180;16399;51.686;8.684;2022-07-18T01:45:38;100739.00;;;15.80
29423;BMP180;16399;51.686;8.684;2022-07-18T01:48:41;100748.00;;;15.80
29423;BMP180;16399;51.686;8.684;2022-07-18T01:51:47;100752.00;;;15.70
29423;BMP180;16399;51.686;8.684;2022-07-18T01:54:49;100747.00;;;15.70
29423;BMP180;16399;51.686;8.684;2022-07-18T01:57:52;100749.00;;;15.70
29423;BMP180;16399;51.686;8.684;2022-07-18T02:00:54;100737.00;;;15.70
29423;BMP180;16399;51.686;8.684;2022-07-18T02:03:56;100735.00;;;15.70
29423;BMP180;16399;51.686;8.684;2022-07-18T02:06:58;100734.00;;;15.70
29423;BMP180;16399;51.686;8.684;2022-07-18T02:10:04;100737.00;;;15.70
29423;BMP180;16399;51.686;8.684;2022-07-18T02:13:05;100732.00;;;15.70
29423;BMP180;16399;51.686;8.684;2022-07-18T02:16:08;100738.00;;;15.70
29423;BMP180;16399;51.686;8.684;2022-07-18T02:19:10;100735.00;;;15.60
29423;BMP180;16399;51.686;8.684;2022-07-18T02:22:12;100729.00;;;15.60
29423;BMP180;16399;51.686;8.684;2022-07-18T02:25:15;100725.00;;;15.60
29423;BMP180;16399;51.686;8.684;2022-07-18T02:28:17;100726.00;;;15.60
29423;BMP180;16399;51.686;8.684;2022-07-18T02:31:19;100711.00;;;15.70
29423;BMP180;16399;51.686;8.684;2022-07-18T02:34:22;100699.00;;;15.70
29423;BMP180;16399;51.686;8.684;2022-07-18T02:37:24;100709.00;;;15.70
29423;BMP180;16399;51.686;8.684;2022-07-18T02:40:26;100706.00;;;15.70
29423;BMP180;16399;51.686;8.684;2022-07-18T02:43:29;100705.00;;;15.80
29423;BMP180;16399;51.686;8.684;2022-07-18T02:46:31;100695.00;;;15.80
29423;BMP180;16399;51.686;8.684;2022-07-18T02:49:33;100696.00;;;15.80
29423;BMP180;16399;51.686;8.684;2022-07-18T02:52:36;100703.00;;;15.80
29423;BMP180;16399;51.686;8.684;2022-07-18T02:55:38;100696.00;;;15.90
29423;BMP180;16399;51.686;8.684;2022-07-18T02:58:40;100700.00;;;15.90
29423;BMP180;16399;51.686;8.684;2022-07-18T03:01:43;100699.00;;;15.90
29423;BMP180;16399;51.686;8.684;2022-07-18T03:04:45;100704.00;;;15.90
29423;BMP180;16399;51.686;8.684;2022-07-18T03:07:47;100700.00;;;15.90
29423;BMP180;16399;51.686;8.684;2022-07-18T03:10:50;100691.00;;;15.90
29423;BMP180;16399;51.686;8.684;2022-07-18T03:13:52;100701.00;;;15.90
29423;BMP180;16399;51.686;8.684;2022-07-18T03:16:55;100701.00;;;15.90
29423;BMP180;16399;51.686;8.684;2022-07-18T03:19:57;100684.00;;;15.90
29423;BMP180;16399;51.686;8.684;2022-07-18T03:23:03;100689.00;;;15.90
29423;BMP180;16399;51.686;8.684;2022-07-18T03:26:03;100694.00;;;15.90
29423;BMP180;16399;51.686;8.684;2022-07-18T03:29:05;100693.00;;;15.90
29423;BMP180;16399;51.686;8.684;2022-07-18T03:32:08;100685.00;;;15.80
29423;BMP180;16399;51.686;8.684;2022-07-18T03:35:10;100689.00;;;15.80
29423;BMP180;16399;51.686;8.684;2022-07-18T03:38:12;100696.00;;;15.80
29423;BMP180;16399;51.686;8.684;2022-07-18T03:41:15;100688.00;;;15.80
29423;BMP180;16399;51.686;8.684;2022-07-18T03:44:17;100688.00;;;15.80
29423;BMP180;16399;51.686;8.684;2022-07-18T03:47:19;100682.00;;;15.80
29423;BMP180;16399;51.686;8.684;2022-07-18T03:50:22;100678.00;;;15.90
29423;BMP180;16399;51.686;8.684;2022-07-18T03:53:24;100683.00;;;15.90
29423;BMP180;16399;51.686;8.684;2022-07-18T03:56:27;100674.00;;;15.90
29423;BMP180;16399;51.686;8.684;2022-07-18T03:59:29;100679.00;;;16.00
29423;BMP180;16399;51.686;8.684;2022-07-18T04:02:31;100677.00;;;16.00
29423;BMP180;16399;51.686;8.684;2022-07-18T04:05:33;100682.00;;;16.20
29423;BMP180;16399;51.686;8.684;2022-07-18T04:08:36;100673.00;;;16.40
29423;BMP180;16399;51.686;8.684;2022-07-18T04:11:38;100681.00;;;16.50
29423;BMP180;16399;51.686;8.684;2022-07-18T04:14:40;100671.00;;;16.50
29423;BMP180;16399;51.686;8.684;2022-07-18T04:17:43;100679.00;;;16.80
29423;BMP180;16399;51.686;8.684;2022-07-18T04:20:45;100670.00;;;17.00
29423;BMP180;16399;51.686;8.684;2022-07-18T04:23:47;100670.00;;;17.20
29423;BMP180;16399;51.686;8.684;2022-07-18T04:26:49;100665.00;;;17.20
29423;BMP180;16399;51.686;8.684;2022-07-18T04:29:52;100666.00;;;17.40
29423;BMP180;16399;51.686;8.684;2022-07-18T04:32:55;100657.00;;;17.60
29423;BMP180;16399;51.686;8.684;2022-07-18T04:35:58;100663.00;;;17.90
29423;BMP180;16399;51.686;8.684;2022-07-18T04:39:00;100655.00;;;18.40
29423;BMP180;16399;51.686;8.684;2022-07-18T04:42:02;100650.00;;;19.10
29423;BMP180;16399;51.686;8.684;2022-07-18T04:45:06;100646.00;;;19.70
29423;BMP180;16399;51.686;8.684;2022-07-18T04:48:09;100648.00;;;20.50
29423;BMP180;16399;51.686;8.684;2022-07-18T04:51:11;100646.00;;;21.10
29423;BMP180;16399;51.686;8.684;2022-07-18T04:54:13;100634.00;;;21.50
29423;BMP180;16399;51.686;8.684;2022-07-18T04:57:15;100639.00;;;22.00
29423;BMP180;16399;51.686;8.684;2022-07-18T05:00:20;100632.00;;;22.40
29423;BMP180;16399;51.686;8.684;2022-07-18T05:03:22;100643.00;;;22.70
29423;BMP180;16399;51.686;8.684;2022-07-18T05:06:24;100638.00;;;22.50
29423;BMP180;16399;51.686;8.684;2022-07-18T05:09:27;100649.00;;;22.30
29423;BMP180;16399;51.686;8.684;2022-07-18T05:12:29;100644.00;;;22.30
29423;BMP180;16399;51.686;8.684;2022-07-18T05:15:32;100652.00;;;22.40
29423;BMP180;16399;51.686;8.684;2022-07-18T05:18:34;100647.00;;;22.40
29423;BMP180;16399;51.686;8.684;2022-07-18T05:21:36;100642.00;;;22.50
29423;BMP180;16399;51.686;8.684;2022-07-18T05:24:39;100647.00;;;22.50
29423;BMP180;16399;51.686;8.684;2022-07-18T05:27:42;100655.00;;;22.10
29423;BMP180;16399;51.686;8.684;2022-07-18T05:30:45;100646.00;;;21.70
29423;BMP180;16399;51.686;8.684;2022-07-18T05:33:47;100652.00;;;21.50
29423;BMP180;16399;51.686;8.684;2022-07-18T05:36:49;100651.00;;;21.20
29423;BMP180;16399;51.686;8.684;2022-07-18T05:39:52;100655.00;;;20.80
29423;BMP180;16399;51.686;8.684;2022-07-18T05:42:54;100656.00;;;20.30
29423;BMP180;16399;51.686;8.684;2022-07-18T05:45:56;100650.00;;;20.00
29423;BMP180;16399;51.686;8.684;2022-07-18T05:48:58;100655.00;;;19.80
29423;BMP180;16399;51.686;8.684;2022-07-18T05:52:01;100661.00;;;19.50
29423;BMP180;16399;51.686;8.684;2022-07-18T05:55:05;100655.00;;;19.50
29423;BMP180;16399;51.686;8.684;2022-07-18T05:58:07;100660.00;;;19.60
29423;BMP180;16399;51.686;8.684;2022-07-18T06:01:09;100667.00;;;19.70
29423;BMP180;16399;51.686;8.684;2022-07-18T06:04:12;100662.00;;;20.00
29423;BMP180;16399;51.686;8.684;2022-07-18T06:07:14;100660.00;;;20.20
29423;BMP180;16399;51.686;8.684;2022-07-18T06:10:17;100656.00;;;20.40
29423;BMP180;16399;51.686;8.684;2022-07-18T06:13:19;100653.00;;;20.60
29423;BMP180;16399;51.686;8.684;2022-07-18T06:16:21;100655.00;;;20.70
29423;BMP180;16399;51.686;8.684;2022-07-18T06:19:24;100647.00;;;20.90
29423;BMP180;16399;51.686;8.684;2022-07-18T06:22:26;100654.00;;;21.00
29423;BMP180;16399;51.686;8.684;2022-07-18T06:25:28;100645.00;;;21.10
29423;BMP180;16399;51.686;8.684;2022-07-18T06:28:31;100645.00;;;21.20
29423;BMP180;16399;51.686;8.684;2022-07-18T06:31:33;100637.00;;;21.30
29423;BMP180;16399;51.686;8.684;2022-07-18T06:34:35;100631.00;;;21.40
29423;BMP180;16399;51.686;8.684;2022-07-18T06:37:38;100625.00;;;21.50
29423;BMP180;16399;51.686;8.684;2022-07-18T06:40:40;100627.00;;;21.60
29423;BMP180;16399;51.686;8.684;2022-07-18T06:43:42;100617.00;;;21.80
29423;BMP180;16399;51.686;8.684;2022-07-18T06:46:45;100610.00;;;22.00
29423;BMP180;16399;51.686;8.684;2022-07-18T06:49:47;100612.00;;;22.30
29423;BMP180;16399;51.686;8.684;2022-07-18T06:52:49;100619.00;;;22.50
29423;BMP180;16399;51.686;8.684;2022-07-18T06:55:52;100615.00;;;22.70
29423;BMP180;16399;51.686;8.684;2022-07-18T06:58:54;100612.00;;;22.90
29423;BMP180;16399;51.686;8.684;2022-07-18T07:01:56;100614.00;;;23.10
29423;BMP180;16399;51.686;8.684;2022-07-18T07:04:59;100615.00;;;23.30
29423;BMP180;16399;51.686;8.684;2022-07-18T07:08:01;100616.00;;;23.60
29423;BMP180;16399;51.686;8.684;2022-07-18T07:11:04;100616.00;;;23.80
29423;BMP180;16399;51.686;8.684;2022-07-18T07:14:07;100615.00;;;24.00
29423;BMP180;16399;51.686;8.684;2022-07-18T07:17:09;100610.00;;;24.10
29423;BMP180;16399;51.686;8.684;2022-07-18T07:20:12;100619.00;;;24.20
29423;BMP180;16399;51.686;8.684;2022-07-18T07:23:15;100620.00;;;24.30
29423;BMP180;16399;51.686;8.684;2022-07-18T07:26:18;100613.00;;;24.40
29423;BMP180;16399;51.686;8.684;2022-07-18T07:29:20;100609.00;;;24.50
29423;BMP180;16399;51.686;8.684;2022-07-18T07:32:22;100607.00;;;24.60
29423;BMP180;16399;51.686;8.684;2022-07-18T07:35:25;100606.00;;;24.70
29423;BMP180;16399;51.686;8.684;2022-07-18T07:38:27;100600.00;;;24.90
29423;BMP180;16399;51.686;8.684;2022-07-18T07:41:30;100606.00;;;25.10
29423;BMP180;16399;51.686;8.684;2022-07-18T07:44:32;100607.00;;;25.20
29423;BMP180;16399;51.686;8.684;2022-07-18T07:47:35;100606.00;;;25.30
29423;BMP180;16399;51.686;8.684;2022-07-18T07:50:37;100596.00;;;25.40
29423;BMP180;16399;51.686;8.684;2022-07-18T07:53:39;100604.00;;;25.60
29423;BMP180;16399;51.686;8.684;2022-07-18T07:56:42;100601.00;;;25.70
29423;BMP180;16399;51.686;8.684;2022-07-18T07:59:44;100612.00;;;25.80
29423;BMP180;16399;51.686;8.684;2022-07-18T08:02:59;100602.00;;;25.90
29423;BMP180;16399;51.686;8.684;2022-07-18T08:05:57;100598.00;;;26.10
29423;BMP180;16399;51.686;8.684;2022-07-18T08:08:59;100586.00;;;26.30
29423;BMP180;16399;51.686;8.684;2022-07-18T08:12:02;100581.00;;;26.60
29423;BMP180;16399;51.686;8.684;2022-07-18T08:15:04;100588.00;;;26.90
29423;BMP180;16399;51.686;8.684;2022-07-18T08:18:07;100574.00;;;27.20
29423;BMP180;16399;51.686;8.684;2022-07-18T08:21:09;100573.00;;;27.50
29423;BMP180;16399;51.686;8.684;2022-07-18T08:24:11;100568.00;;;27.80
29423;BMP180;16399;51.686;8.684;2022-07-18T08:27:14;100572.00;;;28.30
29423;BMP180;16399;51.686;8.684;2022-07-18T08:30:16;100569.00;;;28.60
29423;BMP180;16399;51.686;8.684;2022-07-18T08:33:19;100575.00;;;28.90
29423;BMP180;16399;51.686;8.684;2022-07-18T08:36:21;100563.00;;;29.20
29423;BMP180;16399;51.686;8.684;2022-07-18T08:39:23;100563.00;;;29.50
29423;BMP180;16399;51.686;8.684;2022-07-18T08:42:27;100566.00;;;29.80
29423;BMP180;16399;51.686;8.684;2022-07-18T08:45:29;100562.00;;;30.00
29423;BMP180;16399;51.686;8.684;2022-07-18T08:48:33;100564.00;;;30.20
29423;BMP180;16399;51.686;8.684;2022-07-18T08:51:35;100560.00;;;30.20
29423;BMP180;16399;51.686;8.684;2022-07-18T08:54:38;100564.00;;;30.40
29423;BMP180;16399;51.686;8.684;2022-07-18T08:57:41;100566.00;;;30.50
29423;BMP180;16399;51.686;8.684;2022-07-18T09:00:44;100556.00;;;30.60
29423;BMP180;16399;51.686;8.684;2022-07-18T09:03:46;100555.00;;;30.50
29423;BMP180;16399;51.686;8.684;2022-07-18T09:06:51;100564.00;;;30.50
29423;BMP180;16399;51.686;8.684;2022-07-18T09:13:05;100564.00;;;30.50
29423;BMP180;16399;51.686;8.684;2022-07-18T09:16:10;100568.00;;;30.50
29423;BMP180;16399;51.686;8.684;2022-07-18T09:19:15;100571.00;;;30.50
29423;BMP180;16399;51.686;8.684;2022-07-18T09:22:20;100564.00;;;30.60
29423;BMP180;16399;51.686;8.684;2022-07-18T09:25:23;100567.00;;;30.80
29423;BMP180;16399;51.686;8.684;2022-07-18T09:28:27;100571.00;;;31.00
29423;BMP180;16399;51.686;8.684;2022-07-18T09:31:29;100568.00;;;30.90
29423;BMP180;16399;51.686;8.684;2022-07-18T09:34:36;100553.00;;;30.90
29423;BMP180;16399;51.686;8.684;2022-07-18T09:37:39;100562.00;;;30.80
29423;BMP180;16399;51.686;8.684;2022-07-18T09:40:51;100560.00;;;30.90
29423;BMP180;16399;51.686;8.684;2022-07-18T09:43:54;100557.00;;;30.90
29423;BMP180;16399;51.686;8.684;2022-07-18T09:47:04;100553.00;;;30.60
29423;BMP180;16399;51.686;8.684;2022-07-18T09:50:03;100563.00;;;30.80
29423;BMP180;16399;51.686;8.684;2022-07-18T09:56:22;100544.00;;;30.80
29423;BMP180;16399;51.686;8.684;2022-07-18T09:59:22;100553.00;;;30.90
29423;BMP180;16399;51.686;8.684;2022-07-18T10:02:24;100562.00;;;31.00
29423;BMP180;16399;51.686;8.684;2022-07-18T10:05:28;100560.00;;;30.90
29423;BMP180;16399;51.686;8.684;2022-07-18T10:08:32;100568.00;;;30.90
29423;BMP180;16399;51.686;8.684;2022-07-18T10:11:34;100560.00;;;31.00
29423;BMP180;16399;51.686;8.684;2022-07-18T10:14:38;100551.00;;;31.00
29423;BMP180;16399;51.686;8.684;2022-07-18T10:17:40;100559.00;;;31.10
29423;BMP180;16399;51.686;8.684;2022-07-18T10:20:45;100552.00;;;31.20
29423;BMP180;16399;51.686;8.684;2022-07-18T10:23:49;100553.00;;;31.30
29423;BMP180;16399;51.686;8.684;2022-07-18T10:27:17;100547.00;;;31.50
29423;BMP180;16399;51.686;8.684;2022-07-18T10:33:44;100556.00;;;31.70
29423;BMP180;16399;51.686;8.684;2022-07-18T10:40:20;100548.00;;;31.60
29423;BMP180;16399;51.686;8.684;2022-07-18T10:52:58;100538.00;;;31.40
29423;BMP180;16399;51.686;8.684;2022-07-18T10:56:01;100535.00;;;31.60
29423;BMP180;16399;51.686;8.684;2022-07-18T10:59:24;100537.00;;;31.70
29423;BMP180;16399;51.686;8.684;2022-07-18T11:02:33;100538.00;;;31.70
29423;BMP180;16399;51.686;8.684;2022-07-18T11:05:50;100534.00;;;31.80
29423;BMP180;16399;51.686;8.684;2022-07-18T11:08:52;100536.00;;;31.90
29423;BMP180;16399;51.686;8.684;2022-07-18T11:12:20;100536.00;;;31.90
29423;BMP180;16399;51.686;8.684;2022-07-18T11:15:22;100531.00;;;32.00
29423;BMP180;16399;51.686;8.684;2022-07-18T11:18:25;100526.00;;;32.00
29423;BMP180;16399;51.686;8.684;2022-07-18T11:21:29;100528.00;;;32.20
29423;BMP180;16399;51.686;8.684;2022-07-18T11:24:33;100518.00;;;32.20
29423;BMP180;16399;51.686;8.684;2022-07-18T11:27:39;100513.00;;;32.40
29423;BMP180;16399;51.686;8.684;2022-07-18T11:30:41;100511.00;;;32.50
29423;BMP180;16399;51.686;8.684;2022-07-18T11:33:44;100510.00;;;32.60
29423;BMP180;16399;51.686;8.684;2022-07-18T11:36:48;100505.00;;;32.60
29423;BMP180;16399;51.686;8.684;2022-07-18T11:39:50;100492.00;;;32.60
29423;BMP180;16399;51.686;8.684;2022-07-18T11:42:55;100498.00;;;32.60
29423;BMP180;16399;51.686;8.684;2022-07-18T11:46:05;100492.00;;;32.50
29423;BMP180;16399;51.686;8.684;2022-07-18T11:49:07;100490.00;;;32.60
29423;BMP180;16399;51.686;8.684;2022-07-18T11:52:09;100491.00;;;32.50
29423;BMP180;16399;51.686;8.684;2022-07-18T11:55:13;100480.00;;;32.20
29423;BMP180;16399;51.686;8.684;2022-07-18T11:58:16;100485.00;;;32.20
29423;BMP180;16399;51.686;8.684;2022-07-18T12:01:19;100480.00;;;32.00
29423;BMP180;16399;51.686;8.684;2022-07-18T12:04:23;100475.00;;;31.90
29423;BMP180;16399;51.686;8.684;2022-07-18T12:07:25;100472.00;;;31.70
29423;BMP180;16399;51.686;8.684;2022-07-18T12:10:27;100464.00;;;31.70
29423;BMP180;16399;51.686;8.684;2022-07-18T12:16:47;100465.00;;;32.20
29423;BMP180;16399;51.686;8.684;2022-07-18T12:19:50;100452.00;;;32.30
29423;BMP180;16399;51.686;8.684;2022-07-18T12:23:10;100458.00;;;32.40
29423;BMP180;16399;51.686;8.684;2022-07-18T12:26:09;100456.00;;;32.60
29423;BMP180;16399;51.686;8.684;2022-07-18T12:29:13;100454.00;;;32.80
29423;BMP180;16399;51.686;8.684;2022-07-18T12:32:16;100457.00;;;32.90
29423;BMP180;16399;51.686;8.684;2022-07-18T12:35:21;100456.00;;;32.90
29423;BMP180;16399;51.686;8.684;2022-07-18T12:38:23;100450.00;;;32.80
29423;BMP180;16399;51.686;8.684;2022-07-18T12:41:28;100454.00;;;32.80
29423;BMP180;16399;51.686;8.684;2022-07-18T12:44:31;100451.00;;;32.80
29423;BMP180;16399;51.686;8.684;2022-07-18T12:47:34;100447.00;;;32.90
29423;BMP180;16399;51.686;8.684;2022-07-18T12:50:37;100451.00;;;32.90
29423;BMP180;16399;51.686;8.684;2022-07-18T12:53:42;100448.00;;;33.00
29423;BMP180;16399;51.686;8.684;2022-07-18T12:56:45;100444.00;;;32.90
29423;BMP180;16399;51.686;8.684;2022-07-18T12:59:52;100448.00;;;32.90
29423;BMP180;16399;51.686;8.684;2022-07-18T13:02:51;100444.00;;;32.90
29423;BMP180;16399;51.686;8.684;2022-07-18T13:05:55;100434.00;;;32.90
29423;BMP180;16399;51.686;8.684;2022-07-18T13:08:57;100437.00;;;32.90
29423;BMP180;16399;51.686;8.684;2022-07-18T13:12:00;100432.00;;;32.90
29423;BMP180;16399;51.686;8.684;2022-07-18T13:15:02;100432.00;;;32.90
29423;BMP180;16399;51.686;8.684;2022-07-18T13:18:06;100422.00;;;32.80
29423;BMP180;16399;51.686;8.684;2022-07-18T13:21:09;100426.00;;;32.80
29423;BMP180;16399;51.686;8.684;2022-07-18T13:24:12;100422.00;;;32.80
29423;BMP180;16399;51.686;8.684;2022-07-18T13:27:15;100425.00;;;32.80
29423;BMP180;16399;51.686;8.684;2022-07-18T13:30:19;100423.00;;;32.90
29423;BMP180;16399;51.686;8.684;2022-07-18T13:33:21;100419.00;;;32.90
29423;BMP180;16399;51.686;8.684;2022-07-18T13:36:23;100411.00;;;32.80
29423;BMP180;16399;51.686;8.684;2022-07-18T13:39:26;100411.00;;;32.90
29423;BMP180;16399;51.686;8.684;2022-07-18T13:42:28;100400.00;;;32.90
29423;BMP180;16399;51.686;8.684;2022-07-18T13:45:30;100395.00;;;33.00
29423;BMP180;16399;51.686;8.684;2022-07-18T13:48:33;100390.00;;;33.00
29423;BMP180;16399;51.686;8.684;2022-07-18T13:51:36;100388.00;;;32.90
29423;BMP180;16399;51.686;8.684;2022-07-18T13:54:39;100384.00;;;33.00
29423;BMP180;16399;51.686;8.684;2022-07-18T13:57:41;100391.00;;;33.00
29423;BMP180;16399;51.686;8.684;2022-07-18T14:00:45;100388.00;;;32.90
29423;BMP180;16399;51.686;8.684;2022-07-18T14:03:47;100384.00;;;32.90
29423;BMP180;16399;51.686;8.684;2022-07-18T14:06:49;100383.00;;;32.80
29423;BMP180;16399;51.686;8.684;2022-07-18T14:09:52;100384.00;;;32.80
29423;BMP180;16399;51.686;8.684;2022-07-18T14:12:55;100384.00;;;32.80
29423;BMP180;16399;51.686;8.684;2022-07-18T14:15:57;100382.00;;;32.70
29423;BMP180;16399;51.686;8.684;2022-07-18T14:18:59;100375.00;;;32.70
29423;BMP180;16399;51.686;8.684;2022-07-18T14:22:02;100375.00;;;32.70
29423;BMP180;16399;51.686;8.684;2022-07-18T14:25:05;100375.00;;;32.80
29423;BMP180;16399;51.686;8.684;2022-07-18T14:28:07;100372.00;;;32.90
29423;BMP180;16399;51.686;8.684;2022-07-18T14:31:09;100375.00;;;32.90
29423;BMP180;16399;51.686;8.684;2022-07-18T14:34:12;100369.00;;;33.00
29423;BMP180;16399;51.686;8.684;2022-07-18T14:37:14;100372.00;;;33.00
29423;BMP180;16399;51.686;8.684;2022-07-18T14:40:16;100372.00;;;33.00
29423;BMP180;16399;51.686;8.684;2022-07-18T14:43:19;100368.00;;;33.10
29423;BMP180;16399;51.686;8.684;2022-07-18T14:46:21;100359.00;;;33.10
29423;BMP180;16399;51.686;8.684;2022-07-18T14:49:23;100354.00;;;33.10
29423;BMP180;16399;51.686;8.684;2022-07-18T14:52:26;100353.00;;;33.10
29423;BMP180;16399;51.686;8.684;2022-07-18T14:55:28;100349.00;;;33.00
29423;BMP180;16399;51.686;8.684;2022-07-18T14:58:30;100357.00;;;33.10
29423;BMP180;16399;51.686;8.684;2022-07-18T15:01:33;100353.00;;;33.20
29423;BMP180;16399;51.686;8.684;2022-07-18T15:04:35;100348.00;;;33.20
29423;BMP180;16399;51.686;8.684;2022-07-18T15:07:39;100349.00;;;33.20
29423;BMP180;16399;51.686;8.684;2022-07-18T15:10:41;100345.00;;;33.20
29423;BMP180;16399;51.686;8.684;2022-07-18T15:13:43;100351.00;;;33.20
29423;BMP180;16399;51.686;8.684;2022-07-18T15:16:45;100345.00;;;33.30
29423;BMP180;16399;51.686;8.684;2022-07-18T15:19:48;100352.00;;;33.30
29423;BMP180;16399;51.686;8.684;2022-07-18T15:22:51;100347.00;;;33.30
29423;BMP180;16399;51.686;8.684;2022-07-18T15:25:53;100342.00;;;33.40
29423;BMP180;16399;51.686;8.684;2022-07-18T15:28:55;100345.00;;;33.30
29423;BMP180;16399;51.686;8.684;2022-07-18T15:31:58;100332.00;;;33.30
29423;BMP180;16399;51.686;8.684;2022-07-18T15:35:00;100334.00;;;33.20
29423;BMP180;16399;51.686;8.684;2022-07-18T15:38:02;100339.00;;;33.20
29423;BMP180;16399;51.686;8.684;2022-07-18T15:41:09;100336.00;;;33.20
29423;BMP180;16399;51.686;8.684;2022-07-18T15:44:12;100330.00;;;33.20
29423;BMP180;16399;51.686;8.684;2022-07-18T15:47:14;100326.00;;;33.20
29423;BMP180;16399;51.686;8.684;2022-07-18T15:50:16;100324.00;;;33.30
29423;BMP180;16399;51.686;8.684;2022-07-18T15:53:19;100324.00;;;33.40
29423;BMP180;16399;51.686;8.684;2022-07-18T15:56:21;100323.00;;;33.40
29423;BMP180;16399;51.686;8.684;2022-07-18T15:59:24;100312.00;;;33.40
29423;BMP180;16399;51.686;8.684;2022-07-18T16:02:26;100313.00;;;33.40
29423;BMP180;16399;51.686;8.684;2022-07-18T16:05:28;100295.00;;;33.40
29423;BMP180;16399;51.686;8.684;2022-07-18T16:08:31;100299.00;;;33.40
29423;BMP180;16399;51.686;8.684;2022-07-18T16:11:33;100299.00;;;33.50
29423;BMP180;16399;51.686;8.684;2022-07-18T16:14:37;100295.00;;;33.60
29423;BMP180;16399;51.686;8.684;2022-07-18T16:17:39;100295.00;;;33.60
29423;BMP180;16399;51.686;8.684;2022-07-18T16:20:42;100290.00;;;33.50
29423;BMP180;16399;51.686;8.684;2022-07-18T16:23:44;100287.00;;;33.40
29423;BMP180;16399;51.686;8.684;2022-07-18T16:26:47;100292.00;;;33.30
29423;BMP180;16399;51.686;8.684;2022-07-18T16:29:50;100286.00;;;33.30
29423;BMP180;16399;51.686;8.684;2022-07-18T16:32:52;100286.00;;;33.20
29423;BMP180;16399;51.686;8.684;2022-07-18T16:35:56;100283.00;;;33.10
29423;BMP180;16399;51.686;8.684;2022-07-18T16:38:58;100283.00;;;32.90
29423;BMP180;16399;51.686;8.684;2022-07-18T16:42:01;100283.00;;;32.70
29423;BMP180;16399;51.686;8.684;2022-07-18T16:45:09;100277.00;;;32.50
29423;BMP180;16399;51.686;8.684;2022-07-18T16:48:08;100281.00;;;32.40
29423;BMP180;16399;51.686;8.684;2022-07-18T16:51:11;100274.00;;;32.40
29423;BMP180;16399;51.686;8.684;2022-07-18T16:54:14;100266.00;;;32.30
29423;BMP180;16399;51.686;8.684;2022-07-18T16:57:17;100271.00;;;32.30
29423;BMP180;16399;51.686;8.684;2022-07-18T17:00:19;100262.00;;;32.20
29423;BMP180;16399;51.686;8.684;2022-07-18T17:03:22;100267.00;;;32.20
29423;BMP180;16399;51.686;8.684;2022-07-18T17:06:25;100256.00;;;32.20
29423;BMP180;16399;51.686;8.684;2022-07-18T17:09:27;100258.00;;;32.10
29423;BMP180;16399;51.686;8.684;2022-07-18T17:12:30;100256.00;;;32.00
29423;BMP180;16399;51.686;8.684;2022-07-18T17:15:33;100256.00;;;32.00
29423;BMP180;16399;51.686;8.684;2022-07-18T17:18:36;100255.00;;;32.00
29423;BMP180;16399;51.686;8.684;2022-07-18T17:21:38;100261.00;;;31.90
29423;BMP180;16399;51.686;8.684;2022-07-18T17:24:41;100257.00;;;31.90
29423;BMP180;16399;51.686;8.684;2022-07-18T17:27:44;100251.00;;;31.90
29423;BMP180;16399;51.686;8.684;2022-07-18T17:30:47;100252.00;;;31.80
29423;BMP180;16399;51.686;8.684;2022-07-18T17:33:49;100255.00;;;31.70
29423;BMP180;16399;51.686;8.684;2022-07-18T17:36:53;100250.00;;;31.60
29423;BMP180;16399;51.686;8.684;2022-07-18T17:39:56;100253.00;;;31.50
29423;BMP180;16399;51.686;8.684;2022-07-18T17:42:58;100254.00;;;31.40
29423;BMP180;16399;51.686;8.684;2022-07-18T17:46:01;100252.00;;;31.40